sensor_id;sensor_type;location;lat;lon;timestamp;temperature;humidity
18794;DHT22;29610;49.022;12.114;2023-05-07T00:00:23;10.50;99.90
18794;DHT22;29610;49.022;12.114;2023-05-07T00:03:11;10.40;99.90
18794;DHT22;29610;49.022;12.114;2023-05-07T00:06:01;10.40;99.90
18794;DHT22;29610;49.022;12.114;2023-05-07T00:08:51;10.40;99.90
18794;DHT22;29610;49.022;12.114;2023-05-07T00:11:40;10.50;99.90
18794;DHT22;29610;49.022;12.114;2023-05-07T00:14:29;10.50;99.90
18794;DHT22;29610;49.022;12.114;2023-05-07T00:17:17;10.50;99.90
18794;DHT22;29610;49.022;12.114;2023-05-07T00:20:07;10.60;99.90
18794;DHT22;29610;49.022;12.114;2023-05-07T00:22:57;10.50;99.90
18794;DHT22;29610;49.022;12.114;2023-05-07T00:25:47;10.40;99.90
18794;DHT22;29610;49.022;12.114;2023-05-07T00:28:37;10.40;99.90
18794;DHT22;29610;49.022;12.114;2023-05-07T00:31:26;10.30;99.90
18794;DHT22;29610;49.022;12.114;2023-05-07T00:34:15;10.20;99.90
18794;DHT22;29610;49.022;12.114;2023-05-07T00:37:04;10.20;99.90
18794;DHT22;29610;49.022;12.114;2023-05-07T00:39:54;10.20;99.90
18794;DHT22;29610;49.022;12.114;2023-05-07T00:42:44;10.20;99.90
18794;DHT22;29610;49.022;12.114;2023-05-07T00:45:34;10.10;99.90
18794;DHT22;29610;49.022;12.114;2023-05-07T00:48:23;10.10;99.90
18794;DHT22;29610;49.022;12.114;2023-05-07T00:51:13;10.10;99.90
18794;DHT22;29610;49.022;12.114;2023-05-07T00:54:03;10.10;99.90
18794;DHT22;29610;49.022;12.114;2023-05-07T00:56:53;10.10;99.90
18794;DHT22;29610;49.022;12.114;2023-05-07T00:59:44;10.00;99.90
18794;DHT22;29610;49.022;12.114;2023-05-07T01:02:33;9.90;99.90
18794;DHT22;29610;49.022;12.114;2023-05-07T01:05:24;9.90;99.90
18794;DHT22;29610;49.022;12.114;2023-05-07T01:08:15;9.80;99.90
18794;DHT22;29610;49.022;12.114;2023-05-07T01:11:05;9.80;99.90
18794;DHT22;29610;49.022;12.114;2023-05-07T01:13:55;9.70;99.90
18794;DHT22;29610;49.022;12.114;2023-05-07T01:16:46;9.80;99.90
18794;DHT22;29610;49.022;12.114;2023-05-07T01:19:36;9.70;99.90
18794;DHT22;29610;49.022;12.114;2023-05-07T01:22:31;9.80;99.90
18794;DHT22;29610;49.022;12.114;2023-05-07T01:25:21;9.80;99.90
18794;DHT22;29610;49.022;12.114;2023-05-07T01:28:13;10.00;99.90
18794;DHT22;29610;49.022;12.114;2023-05-07T01:31:04;10.00;99.90
18794;DHT22;29610;49.022;12.114;2023-05-07T01:33:56;10.10;99.90
18794;DHT22;29610;49.022;12.114;2023-05-07T01:36:48;10.00;99.90
18794;DHT22;29610;49.022;12.114;2023-05-07T01:39:39;9.90;99.90
18794;DHT22;29610;49.022;12.114;2023-05-07T01:42:29;9.90;99.90
18794;DHT22;29610;49.022;12.114;2023-05-07T01:45:18;9.90;99.90
18794;DHT22;29610;49.022;12.114;2023-05-07T01:48:11;9.90;99.90
18794;DHT22;29610;49.022;12.114;2023-05-07T01:51:02;10.00;99.90
18794;DHT22;29610;49.022;12.114;2023-05-07T01:53:52;10.10;99.90
18794;DHT22;29610;49.022;12.114;2023-05-07T01:56:42;10.10;99.90
18794;DHT22;29610;49.022;12.114;2023-05-07T01:59:31;10.10;99.90
18794;DHT22;29610;49.022;12.114;2023-05-07T02:02:20;9.00;99.90
18794;DHT22;29610;49.022;12.114;2023-05-07T02:05:09;10.40;99.90
18794;DHT22;29610;49.022;12.114;2023-05-07T02:08:00;10.50;99.90
18794;DHT22;29610;49.022;12.114;2023-05-07T02:10:50;10.60;99.90
18794;DHT22;29610;49.022;12.114;2023-05-07T02:13:42;10.60;99.90
18794;DHT22;29610;49.022;12.114;2023-05-07T02:16:31;10.50;99.90
18794;DHT22;29610;49.022;12.114;2023-05-07T02:19:20;10.40;99.90
18794;DHT22;29610;49.022;12.114;2023-05-07T02:22:10;10.40;99.90
18794;DHT22;29610;49.022;12.114;2023-05-07T02:24:59;10.40;99.90
18794;DHT22;29610;49.022;12.114;2023-05-07T02:27:47;10.50;99.90
18794;DHT22;29610;49.022;12.114;2023-05-07T02:30:38;10.40;99.90
18794;DHT22;29610;49.022;12.114;2023-05-07T02:33:28;10.30;99.90
18794;DHT22;29610;49.022;12.114;2023-05-07T02:36:18;10.30;99.90
18794;DHT22;29610;49.022;12.114;2023-05-07T02:39:16;10.40;99.90
18794;DHT22;29610;49.022;12.114;2023-05-07T02:42:05;10.30;99.90
18794;DHT22;29610;49.022;12.114;2023-05-07T02:44:54;10.30;99.90
18794;DHT22;29610;49.022;12.114;2023-05-07T02:47:44;10.30;99.90
18794;DHT22;29610;49.022;12.114;2023-05-07T02:50:33;10.30;99.90
18794;DHT22;29610;49.022;12.114;2023-05-07T02:53:22;10.30;99.90
18794;DHT22;29610;49.022;12.114;2023-05-07T02:56:13;10.30;99.90
18794;DHT22;29610;49.022;12.114;2023-05-07T02:59:02;10.30;99.90
18794;DHT22;29610;49.022;12.114;2023-05-07T03:01:53;10.40;99.90
18794;DHT22;29610;49.022;12.114;2023-05-07T03:04:44;10.50;99.90
18794;DHT22;29610;49.022;12.114;2023-05-07T03:07:32;10.60;99.90
18794;DHT22;29610;49.022;12.114;2023-05-07T03:10:21;10.60;99.90
18794;DHT22;29610;49.022;12.114;2023-05-07T03:13:10;10.70;99.90
18794;DHT22;29610;49.022;12.114;2023-05-07T03:15:59;10.70;99.90
18794;DHT22;29610;49.022;12.114;2023-05-07T03:18:49;10.60;99.90
18794;DHT22;29610;49.022;12.114;2023-05-07T03:21:39;10.50;99.90
18794;DHT22;29610;49.022;12.114;2023-05-07T03:24:28;9.60;99.90
18794;DHT22;29610;49.022;12.114;2023-05-07T03:27:18;10.30;99.90
18794;DHT22;29610;49.022;12.114;2023-05-07T03:30:08;10.30;99.90
18794;DHT22;29610;49.022;12.114;2023-05-07T03:32:58;10.30;99.90
18794;DHT22;29610;49.022;12.114;2023-05-07T03:35:48;10.30;99.90
18794;DHT22;29610;49.022;12.114;2023-05-07T03:38:42;10.40;99.90
18794;DHT22;29610;49.022;12.114;2023-05-07T03:41:32;10.50;99.90
18794;DHT22;29610;49.022;12.114;2023-05-07T03:44:21;10.50;99.90
18794;DHT22;29610;49.022;12.114;2023-05-07T03:47:11;10.60;99.90
18794;DHT22;29610;49.022;12.114;2023-05-07T03:50:01;10.60;99.90
18794;DHT22;29610;49.022;12.114;2023-05-07T03:52:50;10.60;99.90
18794;DHT22;29610;49.022;12.114;2023-05-07T03:55:42;10.60;99.90
18794;DHT22;29610;49.022;12.114;2023-05-07T03:58:31;10.50;99.90
18794;DHT22;29610;49.022;12.114;2023-05-07T04:01:25;10.50;99.90
18794;DHT22;29610;49.022;12.114;2023-05-07T04:04:15;10.60;99.90
18794;DHT22;29610;49.022;12.114;2023-05-07T04:07:04;10.60;99.90
18794;DHT22;29610;49.022;12.114;2023-05-07T04:09:58;10.50;99.90
18794;DHT22;29610;49.022;12.114;2023-05-07T04:12:48;10.50;99.90
18794;DHT22;29610;49.022;12.114;2023-05-07T04:15:41;10.50;99.90
18794;DHT22;29610;49.022;12.114;2023-05-07T04:18:32;10.40;99.90
18794;DHT22;29610;49.022;12.114;2023-05-07T04:21:21;10.40;99.90
18794;DHT22;29610;49.022;12.114;2023-05-07T04:24:11;10.50;99.90
18794;DHT22;29610;49.022;12.114;2023-05-07T04:27:01;10.60;99.90
18794;DHT22;29610;49.022;12.114;2023-05-07T04:29:51;10.60;99.90
18794;DHT22;29610;49.022;12.114;2023-05-07T04:32:43;10.60;99.90
18794;DHT22;29610;49.022;12.114;2023-05-07T04:35:32;10.60;99.90
18794;DHT22;29610;49.022;12.114;2023-05-07T04:38:21;10.70;99.90
18794;DHT22;29610;49.022;12.114;2023-05-07T04:41:13;10.70;99.90
18794;DHT22;29610;49.022;12.114;2023-05-07T04:44:03;10.80;99.90
18794;DHT22;29610;49.022;12.114;2023-05-07T04:46:55;10.90;99.90
18794;DHT22;29610;49.022;12.114;2023-05-07T04:49:44;11.10;99.90
18794;DHT22;29610;49.022;12.114;2023-05-07T04:52:33;11.30;99.90
18794;DHT22;29610;49.022;12.114;2023-05-07T04:55:23;11.40;99.90
18794;DHT22;29610;49.022;12.114;2023-05-07T04:58:12;11.60;99.90
18794;DHT22;29610;49.022;12.114;2023-05-07T05:01:02;11.80;99.90
18794;DHT22;29610;49.022;12.114;2023-05-07T05:03:53;11.90;99.90
18794;DHT22;29610;49.022;12.114;2023-05-07T05:06:42;12.10;99.90
18794;DHT22;29610;49.022;12.114;2023-05-07T05:09:32;12.30;99.90
18794;DHT22;29610;49.022;12.114;2023-05-07T05:12:21;12.40;99.90
18794;DHT22;29610;49.022;12.114;2023-05-07T05:15:11;12.60;99.90
18794;DHT22;29610;49.022;12.114;2023-05-07T05:18:02;12.70;99.90
18794;DHT22;29610;49.022;12.114;2023-05-07T05:20:53;12.90;99.90
18794;DHT22;29610;49.022;12.114;2023-05-07T05:23:43;12.90;99.90
18794;DHT22;29610;49.022;12.114;2023-05-07T05:26:34;13.00;99.90
18794;DHT22;29610;49.022;12.114;2023-05-07T05:29:25;12.90;99.90
18794;DHT22;29610;49.022;12.114;2023-05-07T05:32:17;12.90;99.90
18794;DHT22;29610;49.022;12.114;2023-05-07T05:35:09;12.90;99.90
18794;DHT22;29610;49.022;12.114;2023-05-07T05:37:59;12.80;99.90
18794;DHT22;29610;49.022;12.114;2023-05-07T05:40:48;12.80;99.90
18794;DHT22;29610;49.022;12.114;2023-05-07T05:43:38;12.90;99.90
18794;DHT22;29610;49.022;12.114;2023-05-07T05:46:30;13.00;99.90
18794;DHT22;29610;49.022;12.114;2023-05-07T05:49:23;13.10;99.90
18794;DHT22;29610;49.022;12.114;2023-05-07T05:52:14;13.30;99.90
18794;DHT22;29610;49.022;12.114;2023-05-07T05:55:06;13.40;99.90
18794;DHT22;29610;49.022;12.114;2023-05-07T05:57:57;13.60;99.90
18794;DHT22;29610;49.022;12.114;2023-05-07T06:00:49;13.60;99.90
18794;DHT22;29610;49.022;12.114;2023-05-07T06:03:42;13.70;99.90
18794;DHT22;29610;49.022;12.114;2023-05-07T06:06:34;13.70;99.90
18794;DHT22;29610;49.022;12.114;2023-05-07T06:09:25;13.60;99.90
18794;DHT22;29610;49.022;12.114;2023-05-07T06:12:15;13.70;99.90
18794;DHT22;29610;49.022;12.114;2023-05-07T06:15:05;13.80;99.90
18794;DHT22;29610;49.022;12.114;2023-05-07T06:17:54;14.00;99.90
18794;DHT22;29610;49.022;12.114;2023-05-07T06:20:45;13.90;99.90
18794;DHT22;29610;49.022;12.114;2023-05-07T06:23:42;14.00;99.90
18794;DHT22;29610;49.022;12.114;2023-05-07T06:26:32;14.20;99.90
18794;DHT22;29610;49.022;12.114;2023-05-07T06:29:22;14.40;99.90
18794;DHT22;29610;49.022;12.114;2023-05-07T06:32:13;14.70;99.90
18794;DHT22;29610;49.022;12.114;2023-05-07T06:35:05;14.80;99.90
18794;DHT22;29610;49.022;12.114;2023-05-07T06:37:57;14.90;99.90
18794;DHT22;29610;49.022;12.114;2023-05-07T06:40:50;15.00;99.90
18794;DHT22;29610;49.022;12.114;2023-05-07T06:43:44;15.10;99.90
18794;DHT22;29610;49.022;12.114;2023-05-07T06:46:52;15.40;99.90
18794;DHT22;29610;49.022;12.114;2023-05-07T06:49:41;15.90;99.10
18794;DHT22;29610;49.022;12.114;2023-05-07T06:52:35;16.40;98.90
18794;DHT22;29610;49.022;12.114;2023-05-07T06:55:24;17.00;97.00
18794;DHT22;29610;49.022;12.114;2023-05-07T06:58:15;17.20;96.70
18794;DHT22;29610;49.022;12.114;2023-05-07T07:01:04;17.50;96.10
18794;DHT22;29610;49.022;12.114;2023-05-07T07:03:56;17.30;95.10
18794;DHT22;29610;49.022;12.114;2023-05-07T07:06:45;17.00;95.10
18794;DHT22;29610;49.022;12.114;2023-05-07T07:09:36;16.50;95.40
18794;DHT22;29610;49.022;12.114;2023-05-07T07:12:29;16.40;95.60
18794;DHT22;29610;49.022;12.114;2023-05-07T07:15:19;16.50;95.90
18794;DHT22;29610;49.022;12.114;2023-05-07T07:37:22;17.30;94.90
18794;DHT22;29610;49.022;12.114;2023-05-07T07:40:19;17.30;94.70
18794;DHT22;29610;49.022;12.114;2023-05-07T07:43:14;17.40;94.20
18794;DHT22;29610;49.022;12.114;2023-05-07T07:46:14;17.30;94.30
18794;DHT22;29610;49.022;12.114;2023-05-07T07:49:08;17.30;94.40
18794;DHT22;29610;49.022;12.114;2023-05-07T07:52:08;17.30;94.30
18794;DHT22;29610;49.022;12.114;2023-05-07T07:55:07;17.30;94.10
18794;DHT22;29610;49.022;12.114;2023-05-07T07:58:02;17.30;94.00
18794;DHT22;29610;49.022;12.114;2023-05-07T08:00:56;17.50;93.60
18794;DHT22;29610;49.022;12.114;2023-05-07T08:03:55;18.10;93.60
18794;DHT22;29610;49.022;12.114;2023-05-07T08:06:52;18.40;93.10
18794;DHT22;29610;49.022;12.114;2023-05-07T08:09:46;18.80;92.30
18794;DHT22;29610;49.022;12.114;2023-05-07T08:12:48;19.20;91.30
18794;DHT22;29610;49.022;12.114;2023-05-07T08:15:43;19.50;91.40
18794;DHT22;29610;49.022;12.114;2023-05-07T08:18:38;18.70;91.10
18794;DHT22;29610;49.022;12.114;2023-05-07T08:21:32;18.30;92.10
18794;DHT22;29610;49.022;12.114;2023-05-07T08:24:33;17.90;92.00
18794;DHT22;29610;49.022;12.114;2023-05-07T08:27:29;18.10;92.60
18794;DHT22;29610;49.022;12.114;2023-05-07T08:30:28;18.40;91.90
18794;DHT22;29610;49.022;12.114;2023-05-07T08:33:22;18.30;91.80
18794;DHT22;29610;49.022;12.114;2023-05-07T08:36:54;18.60;91.50
18794;DHT22;29610;49.022;12.114;2023-05-07T08:45:09;18.80;91.20
18794;DHT22;29610;49.022;12.114;2023-05-07T08:49:48;18.90;91.20
18794;DHT22;29610;49.022;12.114;2023-05-07T08:53:19;19.00;91.10
18794;DHT22;29610;49.022;12.114;2023-05-07T08:56:24;19.10;90.90
18794;DHT22;29610;49.022;12.114;2023-05-07T08:59:18;19.50;90.80
18794;DHT22;29610;49.022;12.114;2023-05-07T09:02:11;19.40;90.10
18794;DHT22;29610;49.022;12.114;2023-05-07T09:05:08;19.50;90.40
18794;DHT22;29610;49.022;12.114;2023-05-07T09:08:14;19.70;89.40
18794;DHT22;29610;49.022;12.114;2023-05-07T09:11:08;19.90;88.60
18794;DHT22;29610;49.022;12.114;2023-05-07T09:14:08;20.10;88.40
18794;DHT22;29610;49.022;12.114;2023-05-07T09:17:05;20.40;88.60
18794;DHT22;29610;49.022;12.114;2023-05-07T09:35:17;20.70;86.70
18794;DHT22;29610;49.022;12.114;2023-05-07T09:39:12;20.80;86.70
18794;DHT22;29610;49.022;12.114;2023-05-07T09:48:21;21.30;83.50
18794;DHT22;29610;49.022;12.114;2023-05-07T09:52:23;21.20;85.80
18794;DHT22;29610;49.022;12.114;2023-05-07T09:56:14;21.10;85.90
18794;DHT22;29610;49.022;12.114;2023-05-07T09:59:49;21.80;82.10
18794;DHT22;29610;49.022;12.114;2023-05-07T10:03:09;21.60;83.80
18794;DHT22;29610;49.022;12.114;2023-05-07T10:06:15;21.40;83.00
18794;DHT22;29610;49.022;12.114;2023-05-07T10:09:12;21.10;85.00
18794;DHT22;29610;49.022;12.114;2023-05-07T10:12:08;21.20;83.90
18794;DHT22;29610;49.022;12.114;2023-05-07T10:15:06;20.80;84.20
18794;DHT22;29610;49.022;12.114;2023-05-07T10:18:12;20.70;87.80
18794;DHT22;29610;49.022;12.114;2023-05-07T10:21:17;20.90;85.30
18794;DHT22;29610;49.022;12.114;2023-05-07T10:24:19;21.10;84.90
18794;DHT22;29610;49.022;12.114;2023-05-07T10:27:22;21.20;83.60
18794;DHT22;29610;49.022;12.114;2023-05-07T10:30:25;20.80;84.80
18794;DHT22;29610;49.022;12.114;2023-05-07T10:33:30;21.10;85.50
18794;DHT22;29610;49.022;12.114;2023-05-07T10:36:33;21.80;85.90
18794;DHT22;29610;49.022;12.114;2023-05-07T10:39:30;22.10;80.90
18794;DHT22;29610;49.022;12.114;2023-05-07T11:03:29;22.50;80.40
18794;DHT22;29610;49.022;12.114;2023-05-07T11:07:39;23.70;78.00
18794;DHT22;29610;49.022;12.114;2023-05-07T11:11:49;23.80;78.30
18794;DHT22;29610;49.022;12.114;2023-05-07T11:15:45;23.90;78.10
18794;DHT22;29610;49.022;12.114;2023-05-07T11:29:17;21.90;79.50
18794;DHT22;29610;49.022;12.114;2023-05-07T11:33:21;22.10;77.60
18794;DHT22;29610;49.022;12.114;2023-05-07T11:37:31;22.90;77.80
18794;DHT22;29610;49.022;12.114;2023-05-07T11:41:21;24.00;77.80
18794;DHT22;29610;49.022;12.114;2023-05-07T11:50:02;24.60;74.30
18794;DHT22;29610;49.022;12.114;2023-05-07T11:54:16;23.00;74.30
18794;DHT22;29610;49.022;12.114;2023-05-07T11:58:27;23.10;76.70
18794;DHT22;29610;49.022;12.114;2023-05-07T12:02:44;22.80;71.90
18794;DHT22;29610;49.022;12.114;2023-05-07T12:11:22;22.10;75.90
18794;DHT22;29610;49.022;12.114;2023-05-07T12:15:09;22.00;76.00
18794;DHT22;29610;49.022;12.114;2023-05-07T12:20:36;21.50;75.80
18794;DHT22;29610;49.022;12.114;2023-05-07T12:24:45;21.60;77.20
18794;DHT22;29610;49.022;12.114;2023-05-07T12:29:01;22.20;73.10
18794;DHT22;29610;49.022;12.114;2023-05-07T12:32:22;22.70;72.10
18794;DHT22;29610;49.022;12.114;2023-05-07T12:35:53;23.20;73.80
18794;DHT22;29610;49.022;12.114;2023-05-07T12:39:15;23.20;69.60
18794;DHT22;29610;49.022;12.114;2023-05-07T12:42:41;22.90;70.60
18794;DHT22;29610;49.022;12.114;2023-05-07T12:46:05;23.40;71.10
18794;DHT22;29610;49.022;12.114;2023-05-07T12:49:06;23.10;70.60
18794;DHT22;29610;49.022;12.114;2023-05-07T12:52:00;23.30;72.50
18794;DHT22;29610;49.022;12.114;2023-05-07T12:55:26;23.30;69.30
18794;DHT22;29610;49.022;12.114;2023-05-07T12:58:30;23.40;69.80
18794;DHT22;29610;49.022;12.114;2023-05-07T13:01:49;23.40;69.10
18794;DHT22;29610;49.022;12.114;2023-05-07T13:05:31;23.50;70.20
18794;DHT22;29610;49.022;12.114;2023-05-07T13:08:38;23.70;69.20
18794;DHT22;29610;49.022;12.114;2023-05-07T13:12:14;23.50;66.70
18794;DHT22;29610;49.022;12.114;2023-05-07T13:15:50;23.80;67.60
18794;DHT22;29610;49.022;12.114;2023-05-07T13:19:11;24.20;68.40
18794;DHT22;29610;49.022;12.114;2023-05-07T13:23:01;24.10;65.30
18794;DHT22;29610;49.022;12.114;2023-05-07T13:26:02;23.90;68.20
18794;DHT22;29610;49.022;12.114;2023-05-07T13:29:52;24.20;67.50
18794;DHT22;29610;49.022;12.114;2023-05-07T13:33:03;25.70;66.40
18794;DHT22;29610;49.022;12.114;2023-05-07T13:36:10;24.40;65.40
18794;DHT22;29610;49.022;12.114;2023-05-07T13:39:30;24.00;65.30
18794;DHT22;29610;49.022;12.114;2023-05-07T13:42:24;24.00;66.90
18794;DHT22;29610;49.022;12.114;2023-05-07T13:45:44;23.80;62.50
18794;DHT22;29610;49.022;12.114;2023-05-07T13:48:40;24.30;65.60
18794;DHT22;29610;49.022;12.114;2023-05-07T13:52:01;23.60;62.50
18794;DHT22;29610;49.022;12.114;2023-05-07T13:55:04;23.50;63.10
18794;DHT22;29610;49.022;12.114;2023-05-07T13:57:59;23.30;65.30
18794;DHT22;29610;49.022;12.114;2023-05-07T14:00:57;23.00;64.30
18794;DHT22;29610;49.022;12.114;2023-05-07T14:03:51;22.70;67.80
18794;DHT22;29610;49.022;12.114;2023-05-07T14:06:49;23.00;65.20
18794;DHT22;29610;49.022;12.114;2023-05-07T14:09:45;22.50;65.00
18794;DHT22;29610;49.022;12.114;2023-05-07T14:12:45;22.40;65.50
18794;DHT22;29610;49.022;12.114;2023-05-07T14:15:38;22.40;65.20
18794;DHT22;29610;49.022;12.114;2023-05-07T14:18:41;22.50;67.60
18794;DHT22;29610;49.022;12.114;2023-05-07T14:21:48;22.90;66.10
18794;DHT22;29610;49.022;12.114;2023-05-07T14:35:37;22.60;67.90
18794;DHT22;29610;49.022;12.114;2023-05-07T14:39:03;22.40;64.40
18794;DHT22;29610;49.022;12.114;2023-05-07T14:42:43;22.20;64.70
18794;DHT22;29610;49.022;12.114;2023-05-07T14:46:10;22.10;66.50
18794;DHT22;29610;49.022;12.114;2023-05-07T14:49:31;22.50;68.60
18794;DHT22;29610;49.022;12.114;2023-05-07T14:58:15;22.10;70.70
18794;DHT22;29610;49.022;12.114;2023-05-07T15:01:38;22.00;70.10
18794;DHT22;29610;49.022;12.114;2023-05-07T15:07:48;21.70;69.40
18794;DHT22;29610;49.022;12.114;2023-05-07T15:10:42;23.00;70.50
18794;DHT22;29610;49.022;12.114;2023-05-07T15:13:37;21.60;69.00
18794;DHT22;29610;49.022;12.114;2023-05-07T15:16:30;21.70;69.80
18794;DHT22;29610;49.022;12.114;2023-05-07T15:19:28;21.70;69.20
18794;DHT22;29610;49.022;12.114;2023-05-07T15:22:24;21.50;67.90
18794;DHT22;29610;49.022;12.114;2023-05-07T15:25:20;21.10;69.40
18794;DHT22;29610;49.022;12.114;2023-05-07T15:28:15;21.10;70.50
18794;DHT22;29610;49.022;12.114;2023-05-07T15:31:33;21.20;71.70
18794;DHT22;29610;49.022;12.114;2023-05-07T15:34:55;21.30;72.00
18794;DHT22;29610;49.022;12.114;2023-05-07T15:38:24;21.20;71.40
18794;DHT22;29610;49.022;12.114;2023-05-07T15:41:40;21.10;72.90
18794;DHT22;29610;49.022;12.114;2023-05-07T15:45:22;20.90;74.10
18794;DHT22;29610;49.022;12.114;2023-05-07T15:48:55;20.80;73.30
18794;DHT22;29610;49.022;12.114;2023-05-07T15:52:24;20.90;72.80
18794;DHT22;29610;49.022;12.114;2023-05-07T15:56:02;20.90;73.90
18794;DHT22;29610;49.022;12.114;2023-05-07T15:59:36;20.90;73.10
18794;DHT22;29610;49.022;12.114;2023-05-07T16:03:22;20.80;73.50
18794;DHT22;29610;49.022;12.114;2023-05-07T16:06:55;20.70;72.90
18794;DHT22;29610;49.022;12.114;2023-05-07T16:14:56;20.70;73.90
18794;DHT22;29610;49.022;12.114;2023-05-07T16:19:06;20.40;73.90
18794;DHT22;29610;49.022;12.114;2023-05-07T16:23:11;20.20;75.30
18794;DHT22;29610;49.022;12.114;2023-05-07T16:27:22;20.30;74.80
18794;DHT22;29610;49.022;12.114;2023-05-07T16:30:48;20.30;75.40
18794;DHT22;29610;49.022;12.114;2023-05-07T16:35:09;20.20;75.50
18794;DHT22;29610;49.022;12.114;2023-05-07T16:58:14;19.30;73.90
18794;DHT22;29610;49.022;12.114;2023-05-07T17:01:59;19.10;74.20
18794;DHT22;29610;49.022;12.114;2023-05-07T17:04:59;19.10;74.60
18794;DHT22;29610;49.022;12.114;2023-05-07T17:07:58;19.10;74.80
18794;DHT22;29610;49.022;12.114;2023-05-07T17:11:00;19.00;74.00
18794;DHT22;29610;49.022;12.114;2023-05-07T17:14:53;18.90;74.40
18794;DHT22;29610;49.022;12.114;2023-05-07T17:17:42;18.80;74.50
18794;DHT22;29610;49.022;12.114;2023-05-07T17:20:33;18.60;75.20
18794;DHT22;29610;49.022;12.114;2023-05-07T17:23:22;18.50;76.80
18794;DHT22;29610;49.022;12.114;2023-05-07T17:26:13;18.40;76.40
18794;DHT22;29610;49.022;12.114;2023-05-07T17:29:02;18.20;77.20
18794;DHT22;29610;49.022;12.114;2023-05-07T17:31:51;18.10;77.50
18794;DHT22;29610;49.022;12.114;2023-05-07T17:34:40;18.10;77.80
18794;DHT22;29610;49.022;12.114;2023-05-07T17:37:28;17.90;78.60
18794;DHT22;29610;49.022;12.114;2023-05-07T17:40:48;17.80;78.10
18794;DHT22;29610;49.022;12.114;2023-05-07T17:43:37;17.70;78.90
18794;DHT22;29610;49.022;12.114;2023-05-07T17:46:26;17.60;79.60
18794;DHT22;29610;49.022;12.114;2023-05-07T17:49:15;17.60;80.00
18794;DHT22;29610;49.022;12.114;2023-05-07T17:52:05;17.50;80.70
18794;DHT22;29610;49.022;12.114;2023-05-07T17:54:55;17.40;81.10
18794;DHT22;29610;49.022;12.114;2023-05-07T17:57:45;17.30;81.80
18794;DHT22;29610;49.022;12.114;2023-05-07T18:00:34;17.30;82.40
18794;DHT22;29610;49.022;12.114;2023-05-07T18:03:24;17.20;83.30
18794;DHT22;29610;49.022;12.114;2023-05-07T18:06:17;17.10;83.70
18794;DHT22;29610;49.022;12.114;2023-05-07T18:09:07;17.00;83.80
18794;DHT22;29610;49.022;12.114;2023-05-07T18:11:55;16.90;84.10
18794;DHT22;29610;49.022;12.114;2023-05-07T18:14:47;16.90;84.50
18794;DHT22;29610;49.022;12.114;2023-05-07T18:17:36;16.80;85.10
18794;DHT22;29610;49.022;12.114;2023-05-07T18:20:25;16.70;85.50
18794;DHT22;29610;49.022;12.114;2023-05-07T18:23:14;16.70;85.40
18794;DHT22;29610;49.022;12.114;2023-05-07T18:26:02;16.60;85.90
18794;DHT22;29610;49.022;12.114;2023-05-07T18:28:54;16.50;86.30
18794;DHT22;29610;49.022;12.114;2023-05-07T18:31:47;16.40;86.70
18794;DHT22;29610;49.022;12.114;2023-05-07T18:34:36;16.30;86.70
18794;DHT22;29610;49.022;12.114;2023-05-07T18:37:25;16.30;86.60
18794;DHT22;29610;49.022;12.114;2023-05-07T18:40:14;16.20;86.70
18794;DHT22;29610;49.022;12.114;2023-05-07T18:43:03;16.20;86.40
18794;DHT22;29610;49.022;12.114;2023-05-07T18:45:54;16.10;86.80
18794;DHT22;29610;49.022;12.114;2023-05-07T18:48:45;16.10;86.60
18794;DHT22;29610;49.022;12.114;2023-05-07T18:51:34;16.00;86.50
18794;DHT22;29610;49.022;12.114;2023-05-07T18:54:28;16.00;86.70
18794;DHT22;29610;49.022;12.114;2023-05-07T18:57:17;15.90;86.50
18794;DHT22;29610;49.022;12.114;2023-05-07T19:00:09;15.80;86.70
18794;DHT22;29610;49.022;12.114;2023-05-07T19:02:59;15.80;86.10
18794;DHT22;29610;49.022;12.114;2023-05-07T19:05:49;15.80;86.40
18794;DHT22;29610;49.022;12.114;2023-05-07T19:08:38;15.70;86.00
18794;DHT22;29610;49.022;12.114;2023-05-07T19:11:29;15.70;86.10
18794;DHT22;29610;49.022;12.114;2023-05-07T19:14:18;15.60;86.10
18794;DHT22;29610;49.022;12.114;2023-05-07T19:17:07;15.60;86.60
18794;DHT22;29610;49.022;12.114;2023-05-07T19:19:56;15.60;86.70
18794;DHT22;29610;49.022;12.114;2023-05-07T19:22:47;15.50;86.30
18794;DHT22;29610;49.022;12.114;2023-05-07T19:25:35;15.50;86.00
18794;DHT22;29610;49.022;12.114;2023-05-07T19:28:24;15.50;86.20
18794;DHT22;29610;49.022;12.114;2023-05-07T19:31:18;15.50;85.30
18794;DHT22;29610;49.022;12.114;2023-05-07T19:34:07;15.40;85.30
18794;DHT22;29610;49.022;12.114;2023-05-07T19:36:56;15.50;85.50
18794;DHT22;29610;49.022;12.114;2023-05-07T19:39:46;15.40;85.50
18794;DHT22;29610;49.022;12.114;2023-05-07T19:42:35;15.40;85.40
18794;DHT22;29610;49.022;12.114;2023-05-07T19:45:24;15.40;86.00
18794;DHT22;29610;49.022;12.114;2023-05-07T19:48:13;15.30;85.80
18794;DHT22;29610;49.022;12.114;2023-05-07T19:51:03;15.30;85.40
18794;DHT22;29610;49.022;12.114;2023-05-07T19:53:55;15.30;85.60
18794;DHT22;29610;49.022;12.114;2023-05-07T19:56:45;15.20;84.60
18794;DHT22;29610;49.022;12.114;2023-05-07T19:59:36;15.10;85.10
18794;DHT22;29610;49.022;12.114;2023-05-07T20:02:25;15.10;84.60
18794;DHT22;29610;49.022;12.114;2023-05-07T20:05:15;15.10;84.40
18794;DHT22;29610;49.022;12.114;2023-05-07T20:08:04;15.00;85.10
18794;DHT22;29610;49.022;12.114;2023-05-07T20:10:56;14.90;84.60
18794;DHT22;29610;49.022;12.114;2023-05-07T20:13:47;14.90;85.30
18794;DHT22;29610;49.022;12.114;2023-05-07T20:16:36;14.80;85.00
18794;DHT22;29610;49.022;12.114;2023-05-07T20:19:25;14.70;85.30
18794;DHT22;29610;49.022;12.114;2023-05-07T20:22:15;14.70;85.60
18794;DHT22;29610;49.022;12.114;2023-05-07T20:25:07;14.60;85.50
18794;DHT22;29610;49.022;12.114;2023-05-07T20:27:59;14.60;85.90
18794;DHT22;29610;49.022;12.114;2023-05-07T20:30:49;14.60;85.80
18794;DHT22;29610;49.022;12.114;2023-05-07T20:33:38;14.60;86.20
18794;DHT22;29610;49.022;12.114;2023-05-07T20:36:27;14.50;86.00
18794;DHT22;29610;49.022;12.114;2023-05-07T20:39:16;14.40;86.30
18794;DHT22;29610;49.022;12.114;2023-05-07T20:42:05;14.40;86.90
18794;DHT22;29610;49.022;12.114;2023-05-07T20:44:54;14.30;86.80
18794;DHT22;29610;49.022;12.114;2023-05-07T20:47:44;14.30;86.50
18794;DHT22;29610;49.022;12.114;2023-05-07T20:50:34;14.30;86.40
18794;DHT22;29610;49.022;12.114;2023-05-07T20:53:23;14.30;86.90
18794;DHT22;29610;49.022;12.114;2023-05-07T20:56:12;14.20;87.00
18794;DHT22;29610;49.022;12.114;2023-05-07T20:59:01;14.20;86.80